createdAt,value
2023-05-09T00:00:53.277Z,0.00
2023-05-09T00:01:53.328Z,0.00
2023-05-09T00:02:53.410Z,0.00
2023-05-09T00:03:53.450Z,0.00
2023-05-09T00:04:53.477Z,0.00
2023-05-09T00:05:53.451Z,0.00
2023-05-09T00:06:53.492Z,11.51
2023-05-09T00:07:53.518Z,24.53
2023-05-09T00:08:53.522Z,23.45
2023-05-09T00:09:53.537Z,25.91
2023-05-09T00:10:53.679Z,25.00
2023-05-09T00:11:53.553Z,25.75
2023-05-09T00:12:53.574Z,26.00
2023-05-09T00:13:53.576Z,25.00
2023-05-09T00:14:53.572Z,25.00
2023-05-09T00:15:53.584Z,25.00
2023-05-09T00:16:53.673Z,29.02
2023-05-09T00:17:53.662Z,24.88
2023-05-09T00:18:53.599Z,25.39
2023-05-09T00:19:53.597Z,25.15
2023-05-09T00:20:53.597Z,28.41
2023-05-09T00:21:53.592Z,24.73
2023-05-09T00:22:53.645Z,25.42
2023-05-09T00:23:53.613Z,26.30
2023-05-09T00:24:53.623Z,25.19
2023-05-09T00:25:53.616Z,25.28
2023-05-09T00:26:53.745Z,29.12
2023-05-09T00:27:53.620Z,24.77
2023-05-09T00:28:53.636Z,28.34
2023-05-09T00:29:53.647Z,29.29
2023-05-09T00:30:53.662Z,26.53
2023-05-09T00:31:53.700Z,24.86
2023-05-09T00:32:53.674Z,30.21
2023-05-09T00:33:53.671Z,25.51
2023-05-09T00:34:53.673Z,27.05
2023-05-09T00:35:53.670Z,26.69
2023-05-09T00:36:53.686Z,27.18
2023-05-09T00:37:53.706Z,28.97
2023-05-09T00:38:53.695Z,25.00
2023-05-09T00:39:53.688Z,27.63
2023-05-09T00:40:53.695Z,26.01
2023-05-09T00:41:53.682Z,25.00
2023-05-09T00:42:53.810Z,29.04
2023-05-09T00:43:53.678Z,30.21
2023-05-09T00:44:53.684Z,27.90
2023-05-09T00:45:53.735Z,27.44
2023-05-09T00:46:53.710Z,29.18
2023-05-09T00:47:53.738Z,29.26
2023-05-09T00:48:53.708Z,28.19
2023-05-09T00:49:53.714Z,29.04
2023-05-09T00:50:53.722Z,28.34
2023-05-09T00:51:53.731Z,27.02
2023-05-09T00:52:53.727Z,29.33
2023-05-09T00:53:53.733Z,27.68
2023-05-09T00:54:53.718Z,30.14
2023-05-09T00:55:53.718Z,25.00
2023-05-09T00:56:53.726Z,29.46
2023-05-09T00:57:53.731Z,25.59
2023-05-09T00:58:53.855Z,27.66
2023-05-09T00:59:53.711Z,28.18
2023-05-09T01:00:53.758Z,30.78
2023-05-09T01:01:53.749Z,27.97
2023-05-09T01:02:53.850Z,30.90
2023-05-09T01:03:53.739Z,28.20
2023-05-09T01:04:53.720Z,25.96
2023-05-09T01:05:53.717Z,31.71
2023-05-09T01:06:53.723Z,29.43
2023-05-09T01:07:53.721Z,28.84
2023-05-09T01:08:53.721Z,27.89
2023-05-09T01:09:53.715Z,25.90
2023-05-09T01:10:53.727Z,28.32
2023-05-09T01:11:53.727Z,29.49
2023-05-09T01:12:53.757Z,29.24
2023-05-09T01:13:53.708Z,29.44
2023-05-09T01:14:53.842Z,25.00
2023-05-09T01:15:53.727Z,29.50
2023-05-09T01:16:53.713Z,28.72
2023-05-09T01:17:53.746Z,25.80
2023-05-09T01:18:53.702Z,27.80
2023-05-09T01:19:53.696Z,28.88
2023-05-09T01:20:53.692Z,27.60
2023-05-09T01:21:53.715Z,27.50
2023-05-09T01:22:53.681Z,26.00
2023-05-09T01:23:53.685Z,31.10
2023-05-09T01:24:53.668Z,26.89
2023-05-09T01:25:53.675Z,30.56
2023-05-09T01:26:53.669Z,27.83
2023-05-09T01:27:53.669Z,28.53
2023-05-09T01:28:53.669Z,26.16
2023-05-09T01:29:53.668Z,30.92
2023-05-09T01:30:53.791Z,27.76
2023-05-09T01:31:53.693Z,27.14
2023-05-09T01:32:53.709Z,30.49
2023-05-09T01:33:53.666Z,31.84
2023-05-09T01:34:53.668Z,31.13
2023-05-09T01:35:53.658Z,30.40
2023-05-09T01:36:53.662Z,28.94
2023-05-09T01:37:53.656Z,28.71
2023-05-09T01:38:53.673Z,31.25
2023-05-09T01:39:53.655Z,27.55
2023-05-09T01:40:53.661Z,31.89
2023-05-09T01:41:53.679Z,29.47
2023-05-09T01:42:53.697Z,25.73
2023-05-09T01:43:53.752Z,29.48
2023-05-09T01:44:53.658Z,27.04
2023-05-09T01:45:53.645Z,32.41
2023-05-09T01:46:53.839Z,28.33
2023-05-09T01:47:53.675Z,26.86
2023-05-09T01:48:53.624Z,30.24
2023-05-09T01:49:53.625Z,26.70
2023-05-09T01:50:53.632Z,26.46
2023-05-09T01:51:53.629Z,27.52
2023-05-09T01:52:53.646Z,26.42
2023-05-09T01:53:53.630Z,27.92
2023-05-09T01:54:53.624Z,29.97
2023-05-09T01:55:53.629Z,25.31
2023-05-09T01:56:53.620Z,29.30
2023-05-09T01:57:53.622Z,26.27
2023-05-09T01:58:53.624Z,28.29
2023-05-09T01:59:53.619Z,26.56
2023-05-09T02:00:53.710Z,29.39
2023-05-09T02:01:53.635Z,30.19
2023-05-09T02:02:53.842Z,31.49
2023-05-09T02:03:53.615Z,27.46
2023-05-09T02:04:53.608Z,27.51
2023-05-09T02:05:53.612Z,29.11
2023-05-09T02:06:53.610Z,29.63
2023-05-09T02:07:53.615Z,26.46
2023-05-09T02:08:53.612Z,27.44
2023-05-09T02:09:53.611Z,27.56
2023-05-09T02:10:53.606Z,26.46
2023-05-09T02:11:53.613Z,30.62
2023-05-09T02:12:53.648Z,27.48
2023-05-09T02:13:53.604Z,26.63
2023-05-09T02:14:53.593Z,29.37
2023-05-09T02:15:53.690Z,26.27
2023-05-09T02:16:53.664Z,29.90
2023-05-09T02:17:53.614Z,27.41
2023-05-09T02:18:53.722Z,26.81
2023-05-09T02:19:53.599Z,29.17
2023-05-09T02:20:53.649Z,25.59
2023-05-09T02:21:53.589Z,28.50
2023-05-09T02:22:53.593Z,32.37
2023-05-09T02:23:53.588Z,27.55
2023-05-09T02:24:53.582Z,31.97
2023-05-09T02:25:53.590Z,30.34
2023-05-09T02:26:53.594Z,29.22
2023-05-09T02:27:53.591Z,30.28
2023-05-09T02:28:53.595Z,25.23
2023-05-09T02:29:53.596Z,26.19
2023-05-09T02:30:53.595Z,27.98
2023-05-09T02:31:53.638Z,26.56
2023-05-09T02:32:53.690Z,26.17
2023-05-09T02:33:53.598Z,28.64
2023-05-09T02:34:53.731Z,29.31
2023-05-09T02:35:53.623Z,28.34
2023-05-09T02:36:53.602Z,28.91
2023-05-09T02:37:53.648Z,30.31
2023-05-09T02:38:53.618Z,28.32
2023-05-09T02:39:53.620Z,28.56
2023-05-09T02:40:53.609Z,25.52
2023-05-09T02:41:53.619Z,31.08
2023-05-09T02:42:53.615Z,29.13
2023-05-09T02:43:53.619Z,25.40
2023-05-09T02:44:53.623Z,30.22
2023-05-09T02:45:53.636Z,29.83
2023-05-09T02:46:53.652Z,32.47
2023-05-09T02:47:53.708Z,27.09
2023-05-09T02:48:54.449Z,28.71
2023-05-09T02:49:53.626Z,27.01
2023-05-09T02:50:53.749Z,25.97
2023-05-09T02:51:53.665Z,25.63
2023-05-09T02:52:53.637Z,29.76
2023-05-09T02:53:53.632Z,28.13
2023-05-09T02:54:53.636Z,27.04
2023-05-09T02:55:53.641Z,29.11
2023-05-09T02:56:53.677Z,27.42
2023-05-09T02:58:02.153Z,31.03
2023-05-09T02:58:53.647Z,31.41
2023-05-09T02:59:53.630Z,31.90
2023-05-09T03:00:54.195Z,33.07
2023-05-09T03:01:53.702Z,32.21
2023-05-09T03:02:53.667Z,33.89
2023-05-09T03:03:53.653Z,30.20
2023-05-09T03:04:53.599Z,32.31
2023-05-09T03:05:53.584Z,29.72
2023-05-09T03:06:53.708Z,29.79
2023-05-09T03:07:53.580Z,28.66
2023-05-09T03:08:53.566Z,31.00
2023-05-09T03:09:53.567Z,26.24
2023-05-09T03:10:53.548Z,27.82
2023-05-09T03:11:53.539Z,29.94
2023-05-09T03:12:53.565Z,28.86
2023-05-09T03:13:53.524Z,31.53
2023-05-09T03:14:53.521Z,31.20
2023-05-09T03:15:53.583Z,29.85
2023-05-09T03:16:53.516Z,27.04
2023-05-09T03:17:53.573Z,30.44
2023-05-09T03:18:53.487Z,26.94
2023-05-09T03:19:53.479Z,29.35
2023-05-09T03:20:53.477Z,33.52
2023-05-09T03:21:54.284Z,28.56
2023-05-09T03:22:53.587Z,31.52
2023-05-09T03:23:53.457Z,31.56
2023-05-09T03:24:53.448Z,31.99
2023-05-09T03:25:53.448Z,27.47
2023-05-09T03:26:53.631Z,31.05
2023-05-09T03:27:53.638Z,28.49
2023-05-09T03:28:53.635Z,28.86
2023-05-09T03:29:53.646Z,31.84
2023-05-09T03:30:53.635Z,28.15
2023-05-09T03:31:53.726Z,32.05
2023-05-09T03:32:53.738Z,31.79
2023-05-09T03:33:53.665Z,30.33
2023-05-09T03:34:53.660Z,28.31
2023-05-09T03:35:53.665Z,25.74
2023-05-09T03:36:53.668Z,28.05
2023-05-09T03:37:53.678Z,27.40
2023-05-09T03:38:53.792Z,29.68
2023-05-09T03:39:53.700Z,25.00
2023-05-09T03:40:53.684Z,33.44
2023-05-09T03:41:53.685Z,34.28
2023-05-09T03:42:53.707Z,29.14
2023-05-09T03:43:54.208Z,32.80
2023-05-09T03:44:53.707Z,32.23
2023-05-09T03:45:53.698Z,29.55
2023-05-09T03:46:53.740Z,31.86
2023-05-09T03:47:53.776Z,33.19
2023-05-09T03:48:53.736Z,31.04
2023-05-09T03:49:53.736Z,30.43
2023-05-09T03:50:53.740Z,28.21
2023-05-09T03:51:53.751Z,30.16
2023-05-09T03:52:53.757Z,29.62
2023-05-09T03:53:53.770Z,34.54
2023-05-09T03:54:53.904Z,26.65
2023-05-09T03:55:53.774Z,31.14
2023-05-09T03:56:53.782Z,28.69
2023-05-09T03:57:53.795Z,29.39
2023-05-09T03:58:53.794Z,25.06
2023-05-09T03:59:53.803Z,31.50
2023-05-09T04:00:53.809Z,30.26
2023-05-09T04:01:53.868Z,29.54
2023-05-09T04:02:53.871Z,29.90
2023-05-09T04:03:53.881Z,30.22
2023-05-09T04:04:53.837Z,30.73
2023-05-09T04:05:53.847Z,29.43
2023-05-09T04:06:53.850Z,29.51
2023-05-09T04:07:53.847Z,29.69
2023-05-09T04:08:53.851Z,31.20
2023-05-09T04:09:53.859Z,31.51
2023-05-09T04:10:54.007Z,30.12
2023-05-09T04:11:53.885Z,27.79
2023-05-09T04:12:53.928Z,25.42
2023-05-09T04:13:53.912Z,27.17
2023-05-09T04:14:53.909Z,28.69
2023-05-09T04:15:53.943Z,29.56
2023-05-09T04:16:53.980Z,30.86
2023-05-09T04:17:53.937Z,29.92
2023-05-09T04:18:53.936Z,28.17
2023-05-09T04:19:53.939Z,31.05
2023-05-09T04:20:53.947Z,29.96
2023-05-09T04:21:53.955Z,25.31
2023-05-09T04:22:53.953Z,27.37
2023-05-09T04:23:53.977Z,30.67
2023-05-09T04:24:53.975Z,29.64
2023-05-09T04:25:53.990Z,26.88
2023-05-09T04:26:54.143Z,25.60
2023-05-09T04:27:54.020Z,30.64
2023-05-09T04:28:54.025Z,28.69
2023-05-09T04:29:54.029Z,27.51
2023-05-09T04:30:54.190Z,30.49
2023-05-09T04:31:54.198Z,28.40
2023-05-09T04:32:54.083Z,26.91
2023-05-09T04:33:54.082Z,26.88
2023-05-09T04:34:54.091Z,29.59
2023-05-09T04:35:54.101Z,30.85
2023-05-09T04:36:54.112Z,27.18
2023-05-09T04:37:54.127Z,27.72
2023-05-09T04:38:54.138Z,30.83
2023-05-09T04:39:54.157Z,30.60
2023-05-09T04:40:54.199Z,29.25
2023-05-09T04:41:54.181Z,29.39
2023-05-09T04:42:54.322Z,28.64
2023-05-09T04:43:54.202Z,30.11
2023-05-09T04:44:54.226Z,26.71
2023-05-09T04:45:54.226Z,32.85
2023-05-09T04:46:54.227Z,29.39
2023-05-09T04:47:54.297Z,31.66
2023-05-09T04:48:54.246Z,29.35
2023-05-09T04:49:55.090Z,27.99
2023-05-09T04:50:54.277Z,31.59
2023-05-09T04:51:54.286Z,27.63
2023-05-09T04:52:54.292Z,28.75
2023-05-09T04:53:54.300Z,29.92
2023-05-09T04:54:54.305Z,29.06
2023-05-09T04:55:54.328Z,29.84
2023-05-09T04:56:57.908Z,26.31
2023-05-09T04:57:54.334Z,26.74
2023-05-09T04:58:54.448Z,27.61
2023-05-09T04:59:54.307Z,28.40
2023-05-09T05:00:54.308Z,26.91
2023-05-09T05:01:54.327Z,30.69
2023-05-09T05:02:54.296Z,27.75
2023-05-09T05:03:54.286Z,25.88
2023-05-09T05:05:03.004Z,28.79
2023-05-09T05:05:54.313Z,29.33
2023-05-09T05:06:54.269Z,29.73
2023-05-09T05:07:54.265Z,29.25
2023-05-09T05:08:54.245Z,29.49
2023-05-09T05:09:54.238Z,31.43
2023-05-09T05:10:54.241Z,32.20
2023-05-09T05:12:00.869Z,31.96
2023-05-09T05:12:54.282Z,32.45
2023-05-09T05:13:54.219Z,33.41
2023-05-09T05:14:54.330Z,32.40
2023-05-09T05:15:54.234Z,33.37
2023-05-09T05:16:54.205Z,30.30
2023-05-09T05:17:54.212Z,31.34
2023-05-09T05:18:54.269Z,28.11
2023-05-09T05:19:54.234Z,27.30
2023-05-09T05:20:54.529Z,30.13
2023-05-09T05:21:54.172Z,25.33
2023-05-09T05:22:54.289Z,29.11
2023-05-09T05:23:54.142Z,31.50
2023-05-09T05:24:54.131Z,30.63
2023-05-09T05:25:54.131Z,28.94
2023-05-09T05:26:54.114Z,29.36
2023-05-09T05:27:54.300Z,30.34
2023-05-09T05:28:54.104Z,28.37
2023-05-09T05:29:54.108Z,32.21
2023-05-09T05:30:54.214Z,30.22
2023-05-09T05:31:54.419Z,30.53
2023-05-09T05:32:54.129Z,32.08
2023-05-09T05:33:54.071Z,31.63
2023-05-09T05:34:54.054Z,33.01
2023-05-09T05:35:54.062Z,31.46
2023-05-09T05:36:54.041Z,32.17
2023-05-09T05:37:55.299Z,33.16
2023-05-09T05:38:54.046Z,39.83
2023-05-09T05:39:54.013Z,37.80
2023-05-09T05:40:54.013Z,38.74
2023-05-09T05:41:53.999Z,36.77
2023-05-09T05:42:54.297Z,39.93
2023-05-09T05:44:01.373Z,34.61
2023-05-09T05:44:54.027Z,34.98
2023-05-09T05:45:55.036Z,36.49
2023-05-09T05:46:54.076Z,41.96
2023-05-09T05:47:54.358Z,43.39
2023-05-09T05:48:53.951Z,46.44
2023-05-09T05:49:57.126Z,45.53
2023-05-09T05:50:53.933Z,45.76
2023-05-09T05:51:53.922Z,45.08
2023-05-09T12:41:18.767Z,25.00
2023-05-09T12:42:10.442Z,25.00
2023-05-09T12:43:10.428Z,25.00
2023-05-09T12:44:10.428Z,25.00
2023-05-09T12:45:10.654Z,25.00
2023-05-09T12:46:10.410Z,25.00
2023-05-09T12:47:10.505Z,25.00
2023-05-09T12:48:10.410Z,25.00
2023-05-09T12:49:10.386Z,25.64
2023-05-09T12:50:10.644Z,18.40
2023-05-09T12:51:10.378Z,25.17
2023-05-09T12:52:10.381Z,27.78
2023-05-09T12:53:10.365Z,29.48
2023-05-09T12:54:10.359Z,11.57
2023-05-09T12:55:10.663Z,15.73
2023-05-09T12:56:10.329Z,29.65
2023-05-09T12:57:10.589Z,24.92
2023-05-09T12:58:10.391Z,40.13
2023-05-09T12:59:10.411Z,64.65
2023-05-09T13:00:10.707Z,62.92
2023-05-09T13:01:10.516Z,49.33
2023-05-09T13:02:10.559Z,38.30
2023-05-09T13:03:10.564Z,43.94
2023-05-09T13:04:12.554Z,65.58
2023-05-09T13:05:10.577Z,76.93
2023-05-09T13:06:10.543Z,83.53
2023-05-09T13:07:10.562Z,90.16
2023-05-09T13:08:10.552Z,86.71
2023-05-09T13:09:10.531Z,34.43
2023-05-09T13:10:12.352Z,41.57
2023-05-09T13:12:09.661Z,42.01
2023-05-09T13:13:10.599Z,43.98
2023-05-09T13:14:10.529Z,48.18
2023-05-09T13:15:10.709Z,53.40
2023-05-09T13:16:12.061Z,44.87
2023-05-09T13:17:10.558Z,40.89
2023-05-09T13:18:10.532Z,43.91
2023-05-09T13:19:10.484Z,50.74
2023-05-09T13:20:10.697Z,67.27
2023-05-09T13:21:10.475Z,94.77
2023-05-09T13:22:12.241Z,123.92
2023-05-09T13:23:10.450Z,124.70
2023-05-09T13:24:10.452Z,139.52
2023-05-09T13:25:10.416Z,180.99
2023-05-09T13:26:10.440Z,267.93
2023-05-09T13:27:10.405Z,325.03
2023-05-09T13:28:10.397Z,183.34
2023-05-09T13:29:10.514Z,186.42
2023-05-09T13:30:10.407Z,193.56
2023-05-09T13:31:10.723Z,196.51
2023-05-09T13:32:10.367Z,202.14
2023-05-09T13:33:24.589Z,202.54
2023-05-09T13:34:10.353Z,203.00
2023-05-09T13:35:10.344Z,205.45
2023-05-09T13:36:10.646Z,217.88
2023-05-09T13:37:10.328Z,240.06
2023-05-09T13:38:10.641Z,272.49
2023-05-09T13:39:10.322Z,261.70
2023-05-09T13:40:10.313Z,251.21
2023-05-09T13:41:10.686Z,250.00
2023-05-09T13:42:10.301Z,249.72
2023-05-09T13:43:10.288Z,249.42
2023-05-09T13:44:10.293Z,248.55
2023-05-09T13:45:10.392Z,248.30
2023-05-09T13:46:10.728Z,249.45
2023-05-09T13:47:10.271Z,248.23
2023-05-09T13:48:10.339Z,250.00
2023-05-09T13:49:10.249Z,249.92
2023-05-09T13:50:10.245Z,248.56
2023-05-09T13:51:10.234Z,248.75
2023-05-09T13:52:10.243Z,249.43
2023-05-09T13:53:10.235Z,249.92
2023-05-09T13:54:10.218Z,248.41
2023-05-09T13:55:10.209Z,247.60
2023-05-09T13:56:10.200Z,248.71
2023-05-09T13:57:10.191Z,249.65
2023-05-09T13:58:10.188Z,249.79
2023-05-09T13:59:10.191Z,248.03
2023-05-09T14:00:10.195Z,247.51
2023-05-09T14:01:10.346Z,247.15
2023-05-09T14:02:10.171Z,248.82
2023-05-09T14:03:10.156Z,248.61
2023-05-09T14:04:10.236Z,247.65
2023-05-09T14:05:10.137Z,249.64
2023-05-09T14:06:10.142Z,248.76
2023-05-09T14:07:10.138Z,248.31
2023-05-09T14:08:10.153Z,249.63
2023-05-09T14:09:10.116Z,250.00
2023-05-09T14:10:15.887Z,248.38
2023-05-09T14:11:10.105Z,248.54
2023-05-09T14:12:10.103Z,248.73
2023-05-09T14:13:10.170Z,249.02
2023-05-09T14:14:10.093Z,249.06
2023-05-09T14:15:10.079Z,248.63
2023-05-09T14:16:10.117Z,246.03
2023-05-09T14:17:10.190Z,248.79
2023-05-09T14:18:10.047Z,246.65
2023-05-09T14:19:10.052Z,247.37
2023-05-09T14:20:10.136Z,245.67
2023-05-09T14:21:10.038Z,244.10
2023-05-09T14:22:10.038Z,244.69
2023-05-09T14:23:10.073Z,244.59
2023-05-09T14:24:10.011Z,244.24
2023-05-09T14:25:10.005Z,242.26
2023-05-09T14:26:09.995Z,243.37
2023-05-09T14:27:09.988Z,244.54
2023-05-09T14:28:09.982Z,244.39
2023-05-09T14:29:10.008Z,243.22
2023-05-09T14:30:09.971Z,242.56
2023-05-09T14:31:09.980Z,242.91
2023-05-09T14:32:09.957Z,242.78
2023-05-09T14:33:10.068Z,241.64
2023-05-09T14:34:10.678Z,241.29
2023-05-09T14:35:09.971Z,241.63
2023-05-09T14:36:10.165Z,240.19
2023-05-09T14:37:09.910Z,240.48
2023-05-09T14:38:09.924Z,240.63
2023-05-09T14:39:09.912Z,241.26
2023-05-09T14:40:09.912Z,239.99
2023-05-09T14:41:09.888Z,241.08
2023-05-09T14:42:09.909Z,239.70
2023-05-09T14:43:09.870Z,239.72
2023-05-09T14:44:09.891Z,242.14
2023-05-09T14:45:09.872Z,240.33
2023-05-09T14:46:09.898Z,240.96
2023-05-09T14:47:10.001Z,239.24
2023-05-09T14:48:09.864Z,238.88
2023-05-09T14:49:09.953Z,238.70
2023-05-09T14:50:09.826Z,239.30
2023-05-09T14:51:09.850Z,238.50
2023-05-09T14:52:09.814Z,237.96
2023-05-09T14:53:09.806Z,238.69
2023-05-09T14:54:09.811Z,239.89
2023-05-09T14:55:09.840Z,240.20
2023-05-09T14:56:09.865Z,238.63
2023-05-09T14:57:09.902Z,239.90
2023-05-09T14:58:09.910Z,239.29
2023-05-09T14:59:09.933Z,239.34
2023-05-09T15:00:20.178Z,238.54
2023-05-09T15:01:09.976Z,238.74
2023-05-09T15:02:09.942Z,239.46
2023-05-09T15:03:09.962Z,239.48
2023-05-09T15:04:09.960Z,239.68
2023-05-09T15:05:10.053Z,240.56
2023-05-09T15:06:09.927Z,239.38
2023-05-09T15:07:09.913Z,239.01
2023-05-09T15:08:09.905Z,239.11
2023-05-09T15:09:09.905Z,239.30
2023-05-09T15:10:10.194Z,239.09
2023-05-09T15:11:09.893Z,238.68
2023-05-09T15:12:09.867Z,239.90
2023-05-09T15:13:09.895Z,239.53
2023-05-09T15:14:09.851Z,239.57
2023-05-09T15:15:09.853Z,238.79
2023-05-09T15:16:09.897Z,239.32
2023-05-09T15:17:09.912Z,240.01
2023-05-09T15:18:09.834Z,240.50
2023-05-09T15:19:09.858Z,237.83
2023-05-09T15:20:09.818Z,239.94
2023-05-09T15:21:09.842Z,240.03
2023-05-09T15:22:09.807Z,238.56
2023-05-09T15:23:09.852Z,239.04
2023-05-09T15:24:09.793Z,238.71
2023-05-09T15:25:09.780Z,240.01
2023-05-09T15:26:09.781Z,238.62
2023-05-09T15:27:09.773Z,239.46
2023-05-09T15:28:09.774Z,239.05
2023-05-09T15:29:09.756Z,238.55
2023-05-09T15:30:09.764Z,237.90
2023-05-09T15:31:09.775Z,238.99
2023-05-09T15:32:09.735Z,237.11
2023-05-09T15:33:09.830Z,238.01
2023-05-09T15:34:09.720Z,238.35
2023-05-09T15:35:09.711Z,238.16
2023-05-09T15:36:09.746Z,237.62
2023-05-09T15:37:09.836Z,236.58
2023-05-09T15:38:09.697Z,236.55
2023-05-09T15:39:09.696Z,237.07
2023-05-09T15:40:09.679Z,237.74
2023-05-09T15:41:09.678Z,235.82
2023-05-09T15:42:09.668Z,235.59
2023-05-09T15:43:09.665Z,236.64
2023-05-09T15:44:09.663Z,234.75
2023-05-09T15:45:09.640Z,236.02
2023-05-09T15:46:09.692Z,236.46
2023-05-09T15:47:09.643Z,235.42
2023-05-09T15:48:09.701Z,237.72
2023-05-09T15:49:09.634Z,236.26
2023-05-09T15:50:09.610Z,236.32
2023-05-09T15:51:09.607Z,233.55
2023-05-09T15:52:09.604Z,234.84
2023-05-09T15:53:09.773Z,235.37
2023-05-09T15:54:09.601Z,234.57
2023-05-09T15:55:09.594Z,234.10
2023-05-09T15:56:09.590Z,234.46
2023-05-09T15:57:09.589Z,234.07
2023-05-09T15:58:09.559Z,233.84
2023-05-09T15:59:09.553Z,234.77
2023-05-09T16:00:09.549Z,234.29
2023-05-09T16:01:09.564Z,235.21
2023-05-09T16:02:09.596Z,235.83
2023-05-09T16:03:09.599Z,234.57
2023-05-09T16:04:09.529Z,234.28
2023-05-09T16:05:09.550Z,232.46
2023-05-09T16:06:09.514Z,234.41
2023-05-09T16:07:09.506Z,235.13
2023-05-09T16:08:09.508Z,235.00
2023-05-09T16:09:09.619Z,233.53
2023-05-09T16:10:09.487Z,233.84
2023-05-09T16:11:09.489Z,233.62
2023-05-09T16:12:09.469Z,233.34
2023-05-09T16:13:09.536Z,233.42
2023-05-09T16:14:09.515Z,233.74
2023-05-09T16:15:09.451Z,234.04
2023-05-09T16:16:09.510Z,234.93
2023-05-09T16:17:09.442Z,234.35
2023-05-09T16:18:09.436Z,234.03
2023-05-09T16:19:09.425Z,233.85
2023-05-09T16:20:09.487Z,234.91
2023-05-09T16:21:09.444Z,234.30
2023-05-09T16:22:09.398Z,235.01
2023-05-09T16:23:09.398Z,234.36
2023-05-09T16:24:09.407Z,234.53
2023-05-09T16:25:09.527Z,233.89
2023-05-09T16:26:09.416Z,234.18
2023-05-09T16:27:09.420Z,234.97
2023-05-09T16:28:09.414Z,235.20
2023-05-09T16:29:09.428Z,234.93
2023-05-09T16:30:09.558Z,234.56
2023-05-09T16:31:09.456Z,235.99
2023-05-09T16:32:09.515Z,235.28
2023-05-09T16:33:09.500Z,235.13
2023-05-09T16:34:09.465Z,235.63
2023-05-09T16:35:09.475Z,235.74
2023-05-09T16:36:09.494Z,234.28
2023-05-09T16:37:09.483Z,235.38
2023-05-09T16:38:09.505Z,234.77
2023-05-09T16:39:09.501Z,235.77
2023-05-09T16:40:09.518Z,234.49
2023-05-09T16:41:09.664Z,233.46
2023-05-09T16:42:09.535Z,233.30
2023-05-09T16:43:09.543Z,233.29
2023-05-09T16:44:09.552Z,234.00
2023-05-09T16:45:09.569Z,235.12
2023-05-09T16:46:09.692Z,233.66
2023-05-09T16:47:09.599Z,234.19
2023-05-09T16:48:09.695Z,233.43
2023-05-09T16:49:09.618Z,233.41
2023-05-09T16:50:09.626Z,234.93
2023-05-09T16:51:09.643Z,233.22
2023-05-09T16:52:09.653Z,232.73
2023-05-09T16:53:09.675Z,233.01
2023-05-09T16:54:09.676Z,232.32
2023-05-09T16:55:09.728Z,232.83
2023-05-09T16:56:09.697Z,233.72
2023-05-09T16:57:09.858Z,233.29
2023-05-09T16:58:09.726Z,231.90
2023-05-09T16:59:11.306Z,233.53
2023-05-09T17:00:09.893Z,235.87
2023-05-09T17:01:09.881Z,232.93
2023-05-09T17:02:09.844Z,233.49
2023-05-09T17:03:09.883Z,234.92
2023-05-09T17:04:09.881Z,232.79
2023-05-09T17:05:09.875Z,233.48
2023-05-09T17:06:09.887Z,234.82
2023-05-09T17:07:10.724Z,233.67
2023-05-09T17:08:09.906Z,234.22
2023-05-09T17:09:09.936Z,234.32
2023-05-09T17:10:09.928Z,233.04
2023-05-09T17:11:09.948Z,235.09
2023-05-09T17:12:09.959Z,233.54
2023-05-09T17:13:10.131Z,233.22
2023-05-09T17:14:09.980Z,235.01
2023-05-09T17:15:09.982Z,234.01
2023-05-09T17:16:10.022Z,233.10
2023-05-09T17:17:10.042Z,235.05
2023-05-09T17:18:10.046Z,233.95
2023-05-09T17:19:10.039Z,235.19
2023-05-09T17:20:10.048Z,233.27
2023-05-09T17:21:10.075Z,234.25
2023-05-09T17:22:10.097Z,234.62
2023-05-09T17:23:10.086Z,235.02
2023-05-09T17:24:10.108Z,234.93
2023-05-09T17:25:10.112Z,234.27
2023-05-09T17:26:10.123Z,235.19
2023-05-09T17:27:10.131Z,233.90
2023-05-09T17:28:10.161Z,233.70
2023-05-09T17:29:10.299Z,235.15
2023-05-09T17:30:10.168Z,235.08
2023-05-09T17:31:10.227Z,233.95
2023-05-09T17:32:10.197Z,234.90
2023-05-09T17:33:10.207Z,235.15
2023-05-09T17:34:10.300Z,234.62
2023-05-09T17:35:10.238Z,234.13
2023-05-09T17:36:10.244Z,235.33
2023-05-09T17:37:10.264Z,234.49
2023-05-09T17:38:10.281Z,235.30
2023-05-09T17:39:10.320Z,235.92
2023-05-09T17:40:10.308Z,233.31
2023-05-09T17:41:10.317Z,235.42
2023-05-09T17:42:12.149Z,234.62
2023-05-09T17:43:10.340Z,236.94
2023-05-09T17:44:10.318Z,237.19
2023-05-09T17:45:10.431Z,235.22
2023-05-09T17:46:10.353Z,234.32
2023-05-09T17:47:10.308Z,234.84
2023-05-09T17:48:10.339Z,235.00
2023-05-09T17:49:10.284Z,234.21
2023-05-09T17:50:10.278Z,234.42
2023-05-09T17:51:10.288Z,234.91
2023-05-09T17:52:10.269Z,233.47
2023-05-09T17:53:10.258Z,234.73
2023-05-09T17:54:10.286Z,233.93
2023-05-09T17:55:10.244Z,233.01
2023-05-09T17:56:10.233Z,234.33
2023-05-09T17:57:10.228Z,234.77
2023-05-09T17:58:10.224Z,234.21
2023-05-09T17:59:10.219Z,233.22
2023-05-09T18:00:10.221Z,233.45
2023-05-09T18:01:10.413Z,232.26
2023-05-09T18:02:10.186Z,233.94
2023-05-09T18:03:10.332Z,233.82
2023-05-09T18:04:10.180Z,234.75
2023-05-09T18:05:10.168Z,233.50
2023-05-09T18:06:10.174Z,234.87
2023-05-09T18:07:10.160Z,233.46
2023-05-09T18:08:10.150Z,232.61
2023-05-09T18:09:10.133Z,234.12
2023-05-09T18:10:10.141Z,234.43
2023-05-09T18:11:10.137Z,234.37
2023-05-09T18:12:10.114Z,234.75
2023-05-09T18:13:10.191Z,234.08
2023-05-09T18:14:10.105Z,233.79
2023-05-09T18:15:10.089Z,232.52
2023-05-09T18:16:10.149Z,233.04
2023-05-09T18:17:10.201Z,232.46
2023-05-09T18:18:11.553Z,232.08
2023-05-09T18:19:10.063Z,232.25
2023-05-09T18:20:10.065Z,232.44
2023-05-09T18:21:10.048Z,232.93
2023-05-09T18:22:10.044Z,232.11
2023-05-09T18:23:10.037Z,233.21
2023-05-09T18:24:10.031Z,232.44
2023-05-09T18:25:10.037Z,234.25
2023-05-09T18:26:10.268Z,232.88
2023-05-09T18:27:10.005Z,232.09
2023-05-09T18:28:09.997Z,230.59
2023-05-09T18:29:09.991Z,230.49
2023-05-09T18:30:09.982Z,233.27
2023-05-09T18:31:10.034Z,230.50
2023-05-09T18:32:09.975Z,230.94
2023-05-09T18:33:10.146Z,232.14
2023-05-09T18:34:09.965Z,231.97
2023-05-09T18:35:09.950Z,232.81
2023-05-09T18:36:09.938Z,232.35
2023-05-09T18:37:09.941Z,231.71
2023-05-09T18:38:09.937Z,231.23
2023-05-09T18:39:09.914Z,230.24
2023-05-09T18:40:09.909Z,232.17
2023-05-09T18:41:09.979Z,232.58
2023-05-09T18:42:09.898Z,231.06
2023-05-09T18:43:09.895Z,232.01
2023-05-09T18:44:09.891Z,230.46
2023-05-09T18:45:09.901Z,229.13
2023-05-09T18:46:09.904Z,230.35
2023-05-09T18:47:09.959Z,230.80
2023-05-09T18:48:09.908Z,229.67
2023-05-09T18:49:09.978Z,228.93
2023-05-09T18:50:09.840Z,232.43
2023-05-09T18:51:09.840Z,230.15
2023-05-09T18:52:09.828Z,230.38
2023-05-09T18:53:09.826Z,230.57
2023-05-09T18:54:09.816Z,231.06
2023-05-09T18:55:09.803Z,230.74
2023-05-09T18:56:09.798Z,229.06
2023-05-09T18:57:09.808Z,230.35
2023-05-09T18:58:09.788Z,227.46
2023-05-09T18:59:09.778Z,228.67
2023-05-09T19:00:09.775Z,229.65
2023-05-09T19:01:09.810Z,228.94
2023-05-09T19:02:09.776Z,230.73
2023-05-09T19:03:09.980Z,227.79
2023-05-09T19:04:09.789Z,229.65
2023-05-09T19:05:09.888Z,229.26
2023-05-09T19:06:09.727Z,228.86
2023-05-09T19:07:09.746Z,227.64
2023-05-09T19:08:09.774Z,230.41
2023-05-09T19:09:09.846Z,227.14
2023-05-09T19:10:09.821Z,227.15
2023-05-09T19:11:09.870Z,230.08
2023-05-09T19:12:09.920Z,227.22
2023-05-09T19:13:10.021Z,227.71
2023-05-09T19:14:09.937Z,229.44
2023-05-09T19:15:09.970Z,228.86
2023-05-09T19:16:10.030Z,230.57
2023-05-09T19:17:10.144Z,229.64
2023-05-09T19:18:10.161Z,229.13
2023-05-09T19:19:10.081Z,228.44
2023-05-09T19:20:10.122Z,228.00
2023-05-09T19:21:10.285Z,229.85
2023-05-09T19:22:10.178Z,229.05
2023-05-09T19:23:10.200Z,227.65
2023-05-09T19:24:10.241Z,227.50
2023-05-09T19:25:10.261Z,226.56
2023-05-09T19:26:10.296Z,226.91
2023-05-09T19:27:10.331Z,228.56
2023-05-09T19:28:10.371Z,226.33
2023-05-09T19:29:10.391Z,227.84
2023-05-09T19:30:10.447Z,227.33